This is the latest recevied weather packets stored in our database for station/object OE3OMK. If no packets are shown the sender has not sent any weather packets the latest 10 day(s).
| Time | Temp. | Humidity | Pressure | Rain* | Wind** | Luminosity | Snow |
|---|---|---|---|---|---|---|---|
| 1787305451 | 26.67° C | 60% | 1012 hPa | 0 mm | - | 460 W/m² | - |
| 1787305210 | 26.67° C | 60% | 1012 hPa | 0 mm | - | 550 W/m² | - |
| 1787304970 | 26.11° C | 59% | 1012 hPa | 0 mm | - | 526 W/m² | - |
| 1787304491 | 25.56° C | 59% | 1012 hPa | 0 mm | - | 514 W/m² | - |
| 1787304011 | 25.56° C | 58% | 1012 hPa | 0 mm | - | 517 W/m² | - |
| 1787303771 | 25° C | 66% | 1012 hPa | 0 mm | - | 446 W/m² | - |
| 1787303532 | 24.44° C | 63% | 1012 hPa | 0 mm | - | 471 W/m² | - |
| 1787303291 | 23.89° C | 60% | 1012 hPa | 0 mm | - | 435 W/m² | - |
| 1787303051 | 23.89° C | 63% | 1012 hPa | 0 mm | - | 444 W/m² | - |
| 1787302571 | 23.33° C | 73% | 1012 hPa | 0 mm | - | 102 W/m² | - |
| 1787302091 | 22.78° C | 74% | 1012 hPa | 0 mm | - | 139 W/m² | - |
| 1787301850 | 22.22° C | 81% | 1012 hPa | 0 mm | - | 108 W/m² | - |
| 1787301613 | 21.67° C | 83% | 1012 hPa | 0 mm | - | 100 W/m² | - |
| 1787301370 | 21.67° C | 82% | 1012 hPa | 0 mm | - | 79 W/m² | - |
| 1787301130 | 21.11° C | 85% | 1012 hPa | 0 mm | - | 85 W/m² | - |
| 1787300411 | 20.56° C | 86% | 1012 hPa | 0 mm | - | 124 W/m² | - |
| 1787300171 | 20.56° C | 87% | 1012 hPa | 0 mm | - | 99 W/m² | - |
| 1787299933 | 20.56° C | 86% | 1012 hPa | 0 mm | - | 106 W/m² | - |
| 1787299693 | 21.11° C | 84% | 1012 hPa | 0 mm | - | 133 W/m² | - |
| 1787299451 | 21.67° C | 83% | 1012 hPa | 0 mm | - | 126 W/m² | - |
| 1787299211 | 21.67° C | 83% | 1012 hPa | 0 mm | - | 136 W/m² | - |
| 1787298971 | 21.67° C | 82% | 1012 hPa | 0 mm | - | 181 W/m² | - |
| 1787298732 | 21.67° C | 82% | 1012 hPa | 0 mm | - | 181 W/m² | - |
| 1787298491 | 21.67° C | 81% | 1012 hPa | 0 mm | - | 189 W/m² | - |
| 1787298012 | 21.11° C | 84% | 1012 hPa | 0 mm | - | 178 W/m² | - |
* Rain latest hour (hover to see other rain measurements)
** Current wind speed in m/s (hover to see current wind gust speed)